sensor_id;sensor_type;location;lat;lon;timestamp;pressure;altitude;pressure_sealevel;temperature;humidity
58955;BME280;45815;52.334;5.024;2023-02-07T00:00:34;104075.84;;;1.25;100.00
58955;BME280;45815;52.334;5.024;2023-02-07T00:03:00;104074.94;;;1.25;100.00
58955;BME280;45815;52.334;5.024;2023-02-07T00:05:27;104072.00;;;1.22;100.00
58955;BME280;45815;52.334;5.024;2023-02-07T00:07:52;104078.84;;;1.21;100.00
58955;BME280;45815;52.334;5.024;2023-02-07T00:10:18;104073.50;;;1.20;100.00
58955;BME280;45815;52.334;5.024;2023-02-07T00:12:43;104074.41;;;1.20;100.00
58955;BME280;45815;52.334;5.024;2023-02-07T00:15:09;104060.22;;;1.17;100.00
58955;BME280;45815;52.334;5.024;2023-02-07T00:17:34;104062.66;;;1.15;100.00
58955;BME280;45815;52.334;5.024;2023-02-07T00:20:00;104062.47;;;1.14;100.00
58955;BME280;45815;52.334;5.024;2023-02-07T00:22:25;104072.66;;;1.12;100.00
58955;BME280;45815;52.334;5.024;2023-02-07T00:24:51;104073.59;;;1.13;100.00
58955;BME280;45815;52.334;5.024;2023-02-07T00:27:17;104070.25;;;1.14;100.00
58955;BME280;45815;52.334;5.024;2023-02-07T00:29:43;104060.81;;;1.14;100.00
58955;BME280;45815;52.334;5.024;2023-02-07T00:32:08;104046.13;;;1.06;100.00
58955;BME280;45815;52.334;5.024;2023-02-07T00:34:34;104060.97;;;1.16;100.00
58955;BME280;45815;52.334;5.024;2023-02-07T00:37:04;104051.41;;;1.15;100.00
58955;BME280;45815;52.334;5.024;2023-02-07T00:39:29;104043.69;;;1.08;100.00
58955;BME280;45815;52.334;5.024;2023-02-07T00:41:55;104054.72;;;1.14;100.00
58955;BME280;45815;52.334;5.024;2023-02-07T00:44:21;104041.88;;;1.07;100.00
58955;BME280;45815;52.334;5.024;2023-02-07T00:46:47;104044.97;;;1.11;100.00
58955;BME280;45815;52.334;5.024;2023-02-07T00:49:13;104047.72;;;1.13;100.00
58955;BME280;45815;52.334;5.024;2023-02-07T00:51:38;104049.53;;;1.14;100.00
58955;BME280;45815;52.334;5.024;2023-02-07T00:54:04;104062.31;;;1.12;100.00
58955;BME280;45815;52.334;5.024;2023-02-07T00:56:30;104054.22;;;1.09;100.00
58955;BME280;45815;52.334;5.024;2023-02-07T00:58:56;104056.22;;;1.12;100.00
58955;BME280;45815;52.334;5.024;2023-02-07T01:01:24;104063.84;;;1.10;100.00
58955;BME280;45815;52.334;5.024;2023-02-07T01:03:53;104064.38;;;1.08;100.00
58955;BME280;45815;52.334;5.024;2023-02-07T01:06:19;104056.47;;;1.06;100.00
58955;BME280;45815;52.334;5.024;2023-02-07T01:08:45;104053.72;;;1.04;100.00
58955;BME280;45815;52.334;5.024;2023-02-07T01:11:13;104057.97;;;1.04;100.00
58955;BME280;45815;52.334;5.024;2023-02-07T01:13:39;104062.25;;;1.03;100.00
58955;BME280;45815;52.334;5.024;2023-02-07T01:16:16;104059.28;;;1.00;100.00
58955;BME280;45815;52.334;5.024;2023-02-07T01:18:41;104067.41;;;1.03;100.00
58955;BME280;45815;52.334;5.024;2023-02-07T01:21:16;104068.91;;;1.01;100.00
58955;BME280;45815;52.334;5.024;2023-02-07T01:23:42;104068.50;;;1.05;100.00
58955;BME280;45815;52.334;5.024;2023-02-07T01:26:07;104070.84;;;1.11;100.00
58955;BME280;45815;52.334;5.024;2023-02-07T01:31:08;104073.84;;;1.23;100.00
58955;BME280;45815;52.334;5.024;2023-02-07T01:33:34;104084.41;;;1.33;100.00
58955;BME280;45815;52.334;5.024;2023-02-07T01:36:05;104071.06;;;1.37;100.00
58955;BME280;45815;52.334;5.024;2023-02-07T01:38:30;104077.00;;;1.36;100.00
58955;BME280;45815;52.334;5.024;2023-02-07T01:40:56;104068.31;;;1.36;100.00
58955;BME280;45815;52.334;5.024;2023-02-07T01:43:22;104062.22;;;1.35;100.00
58955;BME280;45815;52.334;5.024;2023-02-07T01:45:49;104057.03;;;1.35;100.00
58955;BME280;45815;52.334;5.024;2023-02-07T01:48:19;104063.06;;;1.43;100.00
58955;BME280;45815;52.334;5.024;2023-02-07T01:50:50;104064.31;;;1.46;100.00
58955;BME280;45815;52.334;5.024;2023-02-07T01:53:21;104052.53;;;1.41;100.00
58955;BME280;45815;52.334;5.024;2023-02-07T01:55:50;104068.06;;;1.41;100.00
58955;BME280;45815;52.334;5.024;2023-02-07T01:58:17;104063.31;;;1.37;100.00
58955;BME280;45815;52.334;5.024;2023-02-07T02:00:44;104071.06;;;1.37;100.00
58955;BME280;45815;52.334;5.024;2023-02-07T02:03:10;104068.47;;;1.37;100.00
58955;BME280;45815;52.334;5.024;2023-02-07T02:05:36;104057.03;;;1.35;100.00
58955;BME280;45815;52.334;5.024;2023-02-07T02:08:03;104068.97;;;1.42;100.00
58955;BME280;45815;52.334;5.024;2023-02-07T02:13:42;104058.31;;;1.39;100.00
58955;BME280;45815;52.334;5.024;2023-02-07T02:19:21;104070.47;;;1.40;100.00
58955;BME280;45815;52.334;5.024;2023-02-07T02:25:28;104063.31;;;1.37;100.00
58955;BME280;45815;52.334;5.024;2023-02-07T02:33:52;104065.66;;;1.27;100.00
58955;BME280;45815;52.334;5.024;2023-02-07T02:41:38;104041.28;;;1.09;100.00
58955;BME280;45815;52.334;5.024;2023-02-07T02:44:17;104078.41;;;1.10;100.00
58955;BME280;45815;52.334;5.024;2023-02-07T02:46:47;104078.41;;;1.10;100.00
58955;BME280;45815;52.334;5.024;2023-02-07T02:49:14;104070.50;;;1.08;100.00
58955;BME280;45815;52.334;5.024;2023-02-07T02:51:40;104042.03;;;0.92;100.00
58955;BME280;45815;52.334;5.024;2023-02-07T02:54:45;104073.47;;;0.88;100.00
58955;BME280;45815;52.334;5.024;2023-02-07T03:02:55;104069.81;;;1.02;100.00
58955;BME280;45815;52.334;5.024;2023-02-07T03:08:47;104067.56;;;0.89;100.00
58955;BME280;45815;52.334;5.024;2023-02-07T03:11:22;104045.28;;;0.82;100.00
58955;BME280;45815;52.334;5.024;2023-02-07T03:13:59;104061.44;;;0.89;100.00
58955;BME280;45815;52.334;5.024;2023-02-07T03:16:38;104066.03;;;0.91;100.00
58955;BME280;45815;52.334;5.024;2023-02-07T03:19:21;104057.03;;;0.88;100.00
58955;BME280;45815;52.334;5.024;2023-02-07T03:21:52;104057.22;;;0.89;100.00
58955;BME280;45815;52.334;5.024;2023-02-07T03:24:47;104052.47;;;0.85;100.00
58955;BME280;45815;52.334;5.024;2023-02-07T03:27:17;104046.63;;;0.95;100.00
58955;BME280;45815;52.334;5.024;2023-02-07T03:29:46;104037.38;;;0.97;100.00
58955;BME280;45815;52.334;5.024;2023-02-07T03:32:13;104051.63;;;0.93;100.00
58955;BME280;45815;52.334;5.024;2023-02-07T03:37:28;104026.81;;;0.79;100.00
58955;BME280;45815;52.334;5.024;2023-02-07T03:39:57;104045.63;;;0.86;100.00
58955;BME280;45815;52.334;5.024;2023-02-07T03:42:29;104027.25;;;0.75;100.00
58955;BME280;45815;52.334;5.024;2023-02-07T03:44:56;104040.63;;;0.87;100.00
58955;BME280;45815;52.334;5.024;2023-02-07T03:47:24;104043.78;;;0.84;100.00
58955;BME280;45815;52.334;5.024;2023-02-07T03:49:49;104045.28;;;0.82;100.00
58955;BME280;45815;52.334;5.024;2023-02-07T03:52:15;104050.47;;;0.82;100.00
58955;BME280;45815;52.334;5.024;2023-02-07T03:54:40;104038.25;;;0.81;100.00
58955;BME280;45815;52.334;5.024;2023-02-07T03:57:06;104057.31;;;0.82;100.00
58955;BME280;45815;52.334;5.024;2023-02-07T03:59:31;104046.19;;;0.83;100.00
58955;BME280;45815;52.334;5.024;2023-02-07T04:01:57;104046.97;;;0.82;100.00
58955;BME280;45815;52.334;5.024;2023-02-07T04:04:22;104044.00;;;0.79;100.00
58955;BME280;45815;52.334;5.024;2023-02-07T04:06:47;104042.19;;;0.78;100.00
58955;BME280;45815;52.334;5.024;2023-02-07T04:09:13;104045.19;;;0.74;100.00
58955;BME280;45815;52.334;5.024;2023-02-07T04:11:38;104038.75;;;0.70;100.00
58955;BME280;45815;52.334;5.024;2023-02-07T04:14:04;104042.59;;;0.74;100.00
58955;BME280;45815;52.334;5.024;2023-02-07T04:16:29;104042.91;;;0.77;100.00
58955;BME280;45815;52.334;5.024;2023-02-07T04:18:54;104043.69;;;0.76;100.00
58955;BME280;45815;52.334;5.024;2023-02-07T04:21:20;104043.19;;;0.71;100.00
58955;BME280;45815;52.334;5.024;2023-02-07T04:23:45;104025.88;;;0.63;100.00
58955;BME280;45815;52.334;5.024;2023-02-07T04:26:11;104041.00;;;0.67;100.00
58955;BME280;45815;52.334;5.024;2023-02-07T04:28:36;104032.00;;;0.63;100.00
58955;BME280;45815;52.334;5.024;2023-02-07T04:31:01;104035.00;;;0.59;100.00
58955;BME280;45815;52.334;5.024;2023-02-07T04:33:27;104028.72;;;0.57;100.00
58955;BME280;45815;52.334;5.024;2023-02-07T04:35:57;104029.81;;;0.59;100.00
58955;BME280;45815;52.334;5.024;2023-02-07T04:38:23;104041.06;;;0.60;100.00
58955;BME280;45815;52.334;5.024;2023-02-07T04:40:49;104033.31;;;0.60;100.00
58955;BME280;45815;52.334;5.024;2023-02-07T04:43:15;104043.66;;;0.60;100.00
58955;BME280;45815;52.334;5.024;2023-02-07T04:45:40;104047.59;;;0.56;100.00
58955;BME280;45815;52.334;5.024;2023-02-07T04:48:05;104041.31;;;0.54;100.00
58955;BME280;45815;52.334;5.024;2023-02-07T04:50:31;104030.97;;;0.54;100.00
58955;BME280;45815;52.334;5.024;2023-02-07T04:52:56;104041.47;;;0.56;100.00
58955;BME280;45815;52.334;5.024;2023-02-07T04:55:22;104038.72;;;0.54;100.00
58955;BME280;45815;52.334;5.024;2023-02-07T04:57:48;104040.38;;;0.54;100.00
58955;BME280;45815;52.334;5.024;2023-02-07T05:00:13;104022.53;;;0.48;100.00
58955;BME280;45815;52.334;5.024;2023-02-07T05:02:39;104038.56;;;0.53;100.00
58955;BME280;45815;52.334;5.024;2023-02-07T05:05:05;104049.06;;;0.54;100.00
58955;BME280;45815;52.334;5.024;2023-02-07T05:07:31;104035.78;;;0.51;100.00
58955;BME280;45815;52.334;5.024;2023-02-07T05:09:56;104029.72;;;0.51;100.00
58955;BME280;45815;52.334;5.024;2023-02-07T05:12:21;104035.47;;;0.48;100.00
58955;BME280;45815;52.334;5.024;2023-02-07T05:14:47;104033.63;;;0.47;100.00
58955;BME280;45815;52.334;5.024;2023-02-07T05:17:12;104030.09;;;0.47;100.00
58955;BME280;45815;52.334;5.024;2023-02-07T05:19:38;104013.44;;;0.36;100.00
58955;BME280;45815;52.334;5.024;2023-02-07T05:22:04;104020.78;;;0.40;100.00
58955;BME280;45815;52.334;5.024;2023-02-07T05:24:29;104031.44;;;0.43;100.00
58955;BME280;45815;52.334;5.024;2023-02-07T05:26:55;104034.75;;;0.42;100.00
58955;BME280;45815;52.334;5.024;2023-02-07T05:29:20;104032.03;;;0.40;100.00
58955;BME280;45815;52.334;5.024;2023-02-07T05:31:45;104036.28;;;0.40;100.00
58955;BME280;45815;52.334;5.024;2023-02-07T05:34:29;104027.78;;;0.41;100.00
58955;BME280;45815;52.334;5.024;2023-02-07T05:36:55;104034.28;;;0.53;100.00
58955;BME280;45815;52.334;5.024;2023-02-07T05:39:20;104043.47;;;0.58;100.00
58955;BME280;45815;52.334;5.024;2023-02-07T05:41:45;104038.31;;;0.58;100.00
58955;BME280;45815;52.334;5.024;2023-02-07T05:44:11;104039.66;;;0.55;100.00
58955;BME280;45815;52.334;5.024;2023-02-07T05:46:36;104038.22;;;0.50;100.00
58955;BME280;45815;52.334;5.024;2023-02-07T05:49:02;104036.63;;;0.43;100.00
58955;BME280;45815;52.334;5.024;2023-02-07T05:51:27;104049.88;;;0.46;100.00
58955;BME280;45815;52.334;5.024;2023-02-07T05:53:53;104048.97;;;0.46;100.00
58955;BME280;45815;52.334;5.024;2023-02-07T05:56:18;104057.28;;;0.43;100.00
58955;BME280;45815;52.334;5.024;2023-02-07T05:58:43;104046.94;;;0.43;100.00
58955;BME280;45815;52.334;5.024;2023-02-07T06:01:09;104042.69;;;0.44;100.00
58955;BME280;45815;52.334;5.024;2023-02-07T06:03:34;104041.28;;;0.38;100.00
58955;BME280;45815;52.334;5.024;2023-02-07T06:06:00;104042.19;;;0.39;100.00
58955;BME280;45815;52.334;5.024;2023-02-07T06:08:25;104038.09;;;0.41;100.00
58955;BME280;45815;52.334;5.024;2023-02-07T06:10:50;104052.81;;;0.49;100.00
58955;BME280;45815;52.334;5.024;2023-02-07T06:13:16;104047.66;;;0.49;100.00
58955;BME280;45815;52.334;5.024;2023-02-07T06:15:41;104049.13;;;0.47;100.00
58955;BME280;45815;52.334;5.024;2023-02-07T06:18:07;104047.66;;;0.49;100.00
58955;BME280;45815;52.334;5.024;2023-02-07T06:20:32;104054.31;;;0.47;100.00
58955;BME280;45815;52.334;5.024;2023-02-07T06:22:58;104051.34;;;0.44;100.00
58955;BME280;45815;52.334;5.024;2023-02-07T06:25:23;104046.94;;;0.43;100.00
58955;BME280;45815;52.334;5.024;2023-02-07T06:27:49;104044.03;;;0.40;100.00
58955;BME280;45815;52.334;5.024;2023-02-07T06:30:15;104038.50;;;0.37;100.00
58955;BME280;45815;52.334;5.024;2023-02-07T06:32:41;104047.00;;;0.36;100.00
58955;BME280;45815;52.334;5.024;2023-02-07T06:35:07;104041.53;;;0.33;100.00
58955;BME280;45815;52.334;5.024;2023-02-07T06:37:33;104048.91;;;0.30;100.00
58955;BME280;45815;52.334;5.024;2023-02-07T06:39:58;104056.31;;;0.27;100.00
58955;BME280;45815;52.334;5.024;2023-02-07T06:42:23;104048.91;;;0.30;100.00
58955;BME280;45815;52.334;5.024;2023-02-07T06:44:49;104052.56;;;0.32;100.00
58955;BME280;45815;52.334;5.024;2023-02-07T06:47:14;104059.53;;;0.40;100.00
58955;BME280;45815;52.334;5.024;2023-02-07T06:49:40;104063.94;;;0.41;100.00
58955;BME280;45815;52.334;5.024;2023-02-07T06:52:06;104065.75;;;0.42;100.00
58955;BME280;45815;52.334;5.024;2023-02-07T06:54:32;104070.22;;;0.43;100.00
58955;BME280;45815;52.334;5.024;2023-02-07T06:56:58;104060.59;;;0.42;100.00
58955;BME280;45815;52.334;5.024;2023-02-07T06:59:23;104063.63;;;0.38;100.00
58955;BME280;45815;52.334;5.024;2023-02-07T07:01:50;104064.78;;;0.33;100.00
58955;BME280;45815;52.334;5.024;2023-02-07T07:04:15;104071.44;;;0.31;100.00
58955;BME280;45815;52.334;5.024;2023-02-07T07:06:42;104065.88;;;0.28;100.00
58955;BME280;45815;52.334;5.024;2023-02-07T07:09:07;104068.84;;;0.31;100.00
58955;BME280;45815;52.334;5.024;2023-02-07T07:11:33;104076.59;;;0.31;100.00
58955;BME280;45815;52.334;5.024;2023-02-07T07:13:58;104076.22;;;0.28;100.00
58955;BME280;45815;52.334;5.024;2023-02-07T07:16:24;104069.63;;;0.23;100.00
58955;BME280;45815;52.334;5.024;2023-02-07T07:18:50;104084.03;;;0.20;100.00
58955;BME280;45815;52.334;5.024;2023-02-07T07:21:15;104059.78;;;0.04;100.00
58955;BME280;45815;52.334;5.024;2023-02-07T07:23:41;104085.00;;;0.14;100.00
58955;BME280;45815;52.334;5.024;2023-02-07T07:26:06;104092.41;;;0.11;100.00
58955;BME280;45815;52.334;5.024;2023-02-07T07:28:32;104088.00;;;0.10;100.00
58955;BME280;45815;52.334;5.024;2023-02-07T07:31:02;104084.84;;;0.12;100.00
58955;BME280;45815;52.334;5.024;2023-02-07T07:33:27;104085.50;;;0.18;100.00
58955;BME280;45815;52.334;5.024;2023-02-07T07:35:57;104090.09;;;0.21;100.00
58955;BME280;45815;52.334;5.024;2023-02-07T07:38:22;104090.09;;;0.21;100.00
58955;BME280;45815;52.334;5.024;2023-02-07T07:40:48;104094.38;;;0.20;100.00
58955;BME280;45815;52.334;5.024;2023-02-07T07:43:14;104095.28;;;0.21;100.00
58955;BME280;45815;52.334;5.024;2023-02-07T07:45:45;104099.91;;;0.24;100.00
58955;BME280;45815;52.334;5.024;2023-02-07T07:48:15;104103.41;;;0.24;100.00
58955;BME280;45815;52.334;5.024;2023-02-07T07:50:40;104093.22;;;0.26;100.00
58955;BME280;45815;52.334;5.024;2023-02-07T07:53:06;104094.25;;;0.35;100.00
58955;BME280;45815;52.334;5.024;2023-02-07T07:55:31;104091.84;;;0.36;100.00
58955;BME280;45815;52.334;5.024;2023-02-07T07:57:56;104092.63;;;0.35;100.00
58955;BME280;45815;52.334;5.024;2023-02-07T08:00:22;104102.19;;;0.36;100.00
58955;BME280;45815;52.334;5.024;2023-02-07T08:02:47;104097.94;;;0.37;100.00
58955;BME280;45815;52.334;5.024;2023-02-07T08:05:13;104108.44;;;0.38;100.00
58955;BME280;45815;52.334;5.024;2023-02-07T08:07:38;104108.97;;;0.43;100.00
58955;BME280;45815;52.334;5.024;2023-02-07T08:10:04;104110.06;;;0.45;100.00
58955;BME280;45815;52.334;5.024;2023-02-07T08:12:30;104108.72;;;0.49;100.00
58955;BME280;45815;52.334;5.024;2023-02-07T08:14:55;104111.50;;;0.50;100.00
58955;BME280;45815;52.334;5.024;2023-02-07T08:17:21;104102.25;;;0.52;100.00
58955;BME280;45815;52.334;5.024;2023-02-07T08:19:46;104108.84;;;0.57;100.00
58955;BME280;45815;52.334;5.024;2023-02-07T08:22:11;104105.88;;;0.61;100.00
58955;BME280;45815;52.334;5.024;2023-02-07T08:24:38;104100.31;;;0.66;100.00
58955;BME280;45815;52.334;5.024;2023-02-07T08:27:04;104099.28;;;0.72;100.00
58955;BME280;45815;52.334;5.024;2023-02-07T08:29:29;104101.16;;;0.73;100.00
58955;BME280;45815;52.334;5.024;2023-02-07T08:31:54;104107.94;;;0.80;100.00
58955;BME280;45815;52.334;5.024;2023-02-07T08:34:20;104112.25;;;0.88;100.00
58955;BME280;45815;52.334;5.024;2023-02-07T08:36:50;104120.31;;;0.98;100.00
58955;BME280;45815;52.334;5.024;2023-02-07T08:39:15;104099.03;;;1.01;100.00
58955;BME280;45815;52.334;5.024;2023-02-07T08:41:41;104110.31;;;1.17;100.00
58955;BME280;45815;52.334;5.024;2023-02-07T08:44:06;104116.31;;;1.25;100.00
58955;BME280;45815;52.334;5.024;2023-02-07T08:46:32;104101.13;;;1.28;100.00
58955;BME280;45815;52.334;5.024;2023-02-07T08:48:57;104115.47;;;1.33;100.00
58955;BME280;45815;52.334;5.024;2023-02-07T08:51:23;104110.81;;;1.38;100.00
58955;BME280;45815;52.334;5.024;2023-02-07T08:53:48;104109.81;;;1.44;100.00
58955;BME280;45815;52.334;5.024;2023-02-07T08:56:14;104093.88;;;1.48;100.00
58955;BME280;45815;52.334;5.024;2023-02-07T08:58:39;104101.44;;;1.63;100.00
58955;BME280;45815;52.334;5.024;2023-02-07T09:01:06;104103.03;;;1.69;100.00
58955;BME280;45815;52.334;5.024;2023-02-07T09:03:38;104094.16;;;1.67;100.00
58955;BME280;45815;52.334;5.024;2023-02-07T09:06:04;104104.50;;;1.83;100.00
58955;BME280;45815;52.334;5.024;2023-02-07T09:08:30;104109.75;;;1.92;100.00
58955;BME280;45815;52.334;5.024;2023-02-07T09:10:55;104105.97;;;1.97;100.00
58955;BME280;45815;52.334;5.024;2023-02-07T09:13:21;104098.69;;;2.02;100.00
58955;BME280;45815;52.334;5.024;2023-02-07T09:15:55;104104.19;;;2.05;100.00
58955;BME280;45815;52.334;5.024;2023-02-07T09:18:22;104102.28;;;2.11;100.00
58955;BME280;45815;52.334;5.024;2023-02-07T09:20:48;104108.19;;;2.10;100.00
58955;BME280;45815;52.334;5.024;2023-02-07T09:23:14;104107.75;;;2.14;100.00
58955;BME280;45815;52.334;5.024;2023-02-07T09:25:44;104102.47;;;2.21;100.00
58955;BME280;45815;52.334;5.024;2023-02-07T09:28:10;104103.44;;;2.30;100.00
58955;BME280;45815;52.334;5.024;2023-02-07T09:30:39;104092.78;;;2.36;100.00
58955;BME280;45815;52.334;5.024;2023-02-07T09:33:05;104102.47;;;2.54;100.00
58955;BME280;45815;52.334;5.024;2023-02-07T09:35:35;104096.25;;;2.61;100.00
58955;BME280;45815;52.334;5.024;2023-02-07T09:38:00;104101.19;;;2.75;100.00
58955;BME280;45815;52.334;5.024;2023-02-07T09:40:26;104081.84;;;2.81;100.00
58955;BME280;45815;52.334;5.024;2023-02-07T09:45:46;104081.78;;;3.23;100.00
58955;BME280;45815;52.334;5.024;2023-02-07T09:48:16;104080.44;;;3.35;100.00
58955;BME280;45815;52.334;5.024;2023-02-07T09:50:50;104084.25;;;3.47;100.00
58955;BME280;45815;52.334;5.024;2023-02-07T09:53:32;104084.84;;;3.62;100.00
58955;BME280;45815;52.334;5.024;2023-02-07T09:56:03;104089.28;;;3.89;100.00
58955;BME280;45815;52.334;5.024;2023-02-07T10:03:37;104094.53;;;4.34;100.00
58955;BME280;45815;52.334;5.024;2023-02-07T10:06:11;104096.34;;;4.35;100.00
58955;BME280;45815;52.334;5.024;2023-02-07T10:08:43;104099.13;;;4.28;100.00
58955;BME280;45815;52.334;5.024;2023-02-07T10:11:31;104102.31;;;4.34;100.00
58955;BME280;45815;52.334;5.024;2023-02-07T10:24:59;104094.28;;;4.86;100.00
58955;BME280;45815;52.334;5.024;2023-02-07T10:27:35;104090.53;;;5.02;100.00
58955;BME280;45815;52.334;5.024;2023-02-07T10:30:03;104103.97;;;5.15;100.00
58955;BME280;45815;52.334;5.024;2023-02-07T10:32:35;104100.09;;;5.20;100.00
58955;BME280;45815;52.334;5.024;2023-02-07T10:35:13;104107.41;;;5.24;100.00
58955;BME280;45815;52.334;5.024;2023-02-07T10:37:39;104101.44;;;5.25;100.00
58955;BME280;45815;52.334;5.024;2023-02-07T10:40:13;104112.75;;;5.26;100.00
58955;BME280;45815;52.334;5.024;2023-02-07T10:42:41;104113.19;;;5.31;100.00
58955;BME280;45815;52.334;5.024;2023-02-07T10:45:12;104101.28;;;5.43;100.00
58955;BME280;45815;52.334;5.024;2023-02-07T10:47:39;104117.22;;;5.65;100.00
58955;BME280;45815;52.334;5.024;2023-02-07T10:50:18;104122.50;;;5.75;100.00
58955;BME280;45815;52.334;5.024;2023-02-07T10:52:52;104124.97;;;5.74;100.00
58955;BME280;45815;52.334;5.024;2023-02-07T10:55:32;104112.97;;;5.76;100.00
58955;BME280;45815;52.334;5.024;2023-02-07T10:57:58;104121.63;;;5.85;100.00
58955;BME280;45815;52.334;5.024;2023-02-07T11:00:29;104122.00;;;5.98;100.00
58955;BME280;45815;52.334;5.024;2023-02-07T11:03:24;104118.94;;;6.12;100.00
58955;BME280;45815;52.334;5.024;2023-02-07T11:05:56;104116.00;;;6.18;100.00
58955;BME280;45815;52.334;5.024;2023-02-07T11:08:28;104112.13;;;6.33;100.00
58955;BME280;45815;52.334;5.024;2023-02-07T11:10:58;104113.03;;;6.34;100.00
58955;BME280;45815;52.334;5.024;2023-02-07T11:13:26;104114.88;;;6.35;100.00
58955;BME280;45815;52.334;5.024;2023-02-07T11:16:01;104110.72;;;6.37;100.00
58955;BME280;45815;52.334;5.024;2023-02-07T11:21:42;104099.31;;;6.26;100.00
58955;BME280;45815;52.334;5.024;2023-02-07T11:24:17;104085.69;;;6.39;100.00
58955;BME280;45815;52.334;5.024;2023-02-07T11:29:19;104094.44;;;6.50;100.00
58955;BME280;45815;52.334;5.024;2023-02-07T11:31:47;104082.34;;;6.61;100.00
58955;BME280;45815;52.334;5.024;2023-02-07T11:36:51;104076.91;;;6.98;100.00
58955;BME280;45815;52.334;5.024;2023-02-07T11:39:21;104069.84;;;7.18;100.00
58955;BME280;45815;52.334;5.024;2023-02-07T11:41:57;104073.50;;;7.40;100.00
58955;BME280;45815;52.334;5.024;2023-02-07T11:44:25;104069.81;;;7.59;100.00
58955;BME280;45815;52.334;5.024;2023-02-07T11:46:53;104070.78;;;7.81;100.00
58955;BME280;45815;52.334;5.024;2023-02-07T11:49:42;104062.13;;;7.93;100.00
58955;BME280;45815;52.334;5.024;2023-02-07T11:52:06;104053.69;;;8.07;100.00
58955;BME280;45815;52.334;5.024;2023-02-07T11:54:32;104039.44;;;8.36;100.00
58955;BME280;45815;52.334;5.024;2023-02-07T11:57:02;104047.16;;;8.78;100.00
58955;BME280;45815;52.334;5.024;2023-02-07T11:59:28;104045.31;;;9.11;100.00
58955;BME280;45815;52.334;5.024;2023-02-07T12:01:56;104048.19;;;9.26;100.00
58955;BME280;45815;52.334;5.024;2023-02-07T12:04:27;104041.03;;;9.70;100.00
58955;BME280;45815;52.334;5.024;2023-02-07T12:07:02;104029.19;;;10.24;100.00
58955;BME280;45815;52.334;5.024;2023-02-07T12:09:39;104035.13;;;10.84;100.00
58955;BME280;45815;52.334;5.024;2023-02-07T12:12:14;104040.22;;;11.46;92.95
58955;BME280;45815;52.334;5.024;2023-02-07T12:15:13;104036.31;;;11.92;82.50
58955;BME280;45815;52.334;5.024;2023-02-07T12:18:04;104036.41;;;12.35;81.54
58955;BME280;45815;52.334;5.024;2023-02-07T12:20:35;104032.97;;;12.36;86.57
58955;BME280;45815;52.334;5.024;2023-02-07T12:23:08;104028.28;;;12.04;78.98
58955;BME280;45815;52.334;5.024;2023-02-07T12:25:51;104044.31;;;12.35;79.21
58955;BME280;45815;52.334;5.024;2023-02-07T12:28:50;104032.81;;;13.06;78.65
58955;BME280;45815;52.334;5.024;2023-02-07T12:31:21;104049.84;;;13.26;75.66
58955;BME280;45815;52.334;5.024;2023-02-07T12:36:28;104035.34;;;14.10;75.27
58955;BME280;45815;52.334;5.024;2023-02-07T12:39:02;104022.91;;;14.24;73.37
58955;BME280;45815;52.334;5.024;2023-02-07T12:41:40;104024.56;;;14.22;67.80
58955;BME280;45815;52.334;5.024;2023-02-07T12:44:34;104022.75;;;14.70;59.85
58955;BME280;45815;52.334;5.024;2023-02-07T12:47:06;104033.50;;;14.89;68.28
58955;BME280;45815;52.334;5.024;2023-02-07T12:58:27;104021.13;;;15.40;58.20
58955;BME280;45815;52.334;5.024;2023-02-07T13:01:03;104027.56;;;15.46;59.87
58955;BME280;45815;52.334;5.024;2023-02-07T13:09:07;104014.81;;;15.20;48.78
58955;BME280;45815;52.334;5.024;2023-02-07T13:17:11;104006.72;;;15.17;53.54
58955;BME280;45815;52.334;5.024;2023-02-07T13:19:39;104001.50;;;15.19;59.46
58955;BME280;45815;52.334;5.024;2023-02-07T13:24:42;103994.69;;;15.96;57.54
58955;BME280;45815;52.334;5.024;2023-02-07T13:27:14;103992.47;;;15.86;52.81
58955;BME280;45815;52.334;5.024;2023-02-07T13:29:42;103988.97;;;15.87;55.98
58955;BME280;45815;52.334;5.024;2023-02-07T13:32:13;103976.25;;;15.79;53.51
58955;BME280;45815;52.334;5.024;2023-02-07T13:34:56;103987.66;;;15.96;54.03
58955;BME280;45815;52.334;5.024;2023-02-07T13:37:30;103988.88;;;15.67;53.71
58955;BME280;45815;52.334;5.024;2023-02-07T13:43:02;103982.94;;;14.67;55.50
58955;BME280;45815;52.334;5.024;2023-02-07T13:48:40;103986.00;;;13.32;68.17
58955;BME280;45815;52.334;5.024;2023-02-07T13:56:33;103978.59;;;11.55;78.25
58955;BME280;45815;52.334;5.024;2023-02-07T14:02:12;103971.06;;;10.95;84.78
58955;BME280;45815;52.334;5.024;2023-02-07T14:07:19;103977.69;;;10.38;87.46
58955;BME280;45815;52.334;5.024;2023-02-07T14:09:47;103971.22;;;10.21;88.59
58955;BME280;45815;52.334;5.024;2023-02-07T14:14:41;103979.13;;;9.61;92.11
58955;BME280;45815;52.334;5.024;2023-02-07T14:19:53;103997.59;;;9.50;94.01
58955;BME280;45815;52.334;5.024;2023-02-07T14:22:26;103993.25;;;9.63;93.86
58955;BME280;45815;52.334;5.024;2023-02-07T14:32:43;103981.94;;;9.76;90.53
58955;BME280;45815;52.334;5.024;2023-02-07T14:40:51;103987.97;;;8.92;100.00
58955;BME280;45815;52.334;5.024;2023-02-07T14:43:24;103974.25;;;8.73;100.00
58955;BME280;45815;52.334;5.024;2023-02-07T14:48:44;103979.00;;;8.11;100.00
58955;BME280;45815;52.334;5.024;2023-02-07T14:51:17;103981.03;;;7.93;100.00
58955;BME280;45815;52.334;5.024;2023-02-07T14:53:45;103971.53;;;7.83;100.00
58955;BME280;45815;52.334;5.024;2023-02-07T14:56:40;103985.06;;;7.67;100.00
58955;BME280;45815;52.334;5.024;2023-02-07T14:59:12;103983.13;;;7.65;100.00
58955;BME280;45815;52.334;5.024;2023-02-07T15:01:40;103970.25;;;7.46;100.00
58955;BME280;45815;52.334;5.024;2023-02-07T15:04:09;103980.19;;;7.50;100.00